Time;durP1;ratioP1;P1;durP2;ratioP2;P2;SDS_P1;SDS_P2;PMS_P1;PMS_P2;Temp;Humidity;BMP_temperature;BMP_pressure;BME280_temperature;BME280_humidity;BME280_pressure;Samples;Min_cycle;Max_cycle;Signal;HPM_P1;HPM_P2
2022/10/02 00:02:21;;;;;;;6.20;5.60;;;;;;;10.94;81.32;99515.17;106219;1268;24206;-86
2022/10/02 00:05:06;;;;;;;7.30;5.90;;;;;;;10.87;81.21;99513.93;105991;1276;24343;-86
2022/10/02 00:07:55;;;;;;;7.20;6.50;;;;;;;10.81;81.58;99515.31;106186;1276;22557;-87
2022/10/02 00:10:34;;;;;;;7.10;6.00;;;;;;;10.74;81.84;99516.34;106064;1276;22544;-85
2022/10/02 00:13:06;;;;;;;6.10;5.50;;;;;;;10.70;81.91;99516.29;106283;1276;22805;-87
2022/10/02 00:15:40;;;;;;;6.20;5.60;;;;;;;10.67;82.07;99516.52;106632;1276;23221;-88
2022/10/02 00:18:13;;;;;;;6.50;5.80;;;;;;;10.65;82.41;99519.20;106327;1276;23155;-87
2022/10/02 00:21:06;;;;;;;6.00;5.30;;;;;;;10.62;82.61;99523.48;106608;1276;23996;-87
2022/10/02 00:23:40;;;;;;;5.70;5.20;;;;;;;10.61;82.74;99523.85;106255;1276;22713;-88
2022/10/02 00:26:24;;;;;;;6.10;5.50;;;;;;;10.60;82.90;99521.23;106436;1276;23914;-89
2022/10/02 00:29:06;;;;;;;7.90;5.80;;;;;;;10.63;83.11;99528.92;108051;1274;22843;-89
2022/10/02 00:31:56;;;;;;;5.80;5.30;;;;;;;10.60;83.14;99527.61;107783;1274;23004;-88
2022/10/02 00:34:33;;;;;;;6.00;5.40;;;;;;;10.61;83.46;99527.90;106790;1276;23751;-88
2022/10/02 00:37:34;;;;;;;6.40;5.30;;;;;;;10.64;83.08;99530.13;106357;1276;22708;-86
2022/10/02 00:40:52;;;;;;;6.30;5.70;;;;;;;10.69;83.34;99528.09;103416;1307;545560;-84
2022/10/02 00:43:38;;;;;;;5.70;5.10;;;;;;;10.67;83.24;99529.91;106075;1284;24280;-81
2022/10/02 00:46:11;;;;;;;5.60;5.10;;;;;;;10.66;83.39;99528.86;105487;1284;23962;-81
2022/10/02 00:48:57;;;;;;;7.10;5.20;;;;;;;10.62;83.06;99532.12;105336;1284;25532;-82
2022/10/02 00:51:46;;;;;;;5.80;5.20;;;;;;;10.62;83.44;99531.23;105413;1284;25334;-82
2022/10/02 00:54:26;;;;;;;6.60;5.80;;;;;;;10.67;83.39;99533.95;105333;1281;155888;-81
2022/10/02 00:57:12;;;;;;;6.80;6.10;;;;;;;10.69;83.40;99535.52;105635;1281;22619;-81
2022/10/02 00:59:50;;;;;;;6.70;6.00;;;;;;;10.69;83.38;99531.46;105350;1286;23975;-81
2022/10/02 01:02:23;;;;;;;10.30;6.20;;;;;;;10.65;83.43;99532.58;105264;1286;23954;-82
2022/10/02 01:04:50;;;;;;;6.70;6.00;;;;;;;10.62;83.50;99538.63;105261;1287;23981;-79
2022/10/02 01:07:17;;;;;;;7.20;6.00;;;;;;;10.64;83.66;99533.13;104999;1286;22611;-81
2022/10/02 01:09:45;;;;;;;7.50;6.10;;;;;;;10.65;83.49;99537.67;105017;1287;25130;-83
2022/10/02 01:12:13;;;;;;;6.70;6.00;;;;;;;10.67;83.58;99536.94;105081;1287;22662;-79
2022/10/02 01:14:41;;;;;;;6.10;5.50;;;;;;;10.71;83.69;99541.09;105002;1287;22976;-77
2022/10/02 01:17:23;;;;;;;5.90;5.10;;;;;;;10.70;83.50;99540.58;104289;1291;24540;-76
2022/10/02 01:19:51;;;;;;;10.50;6.00;;;;;;;10.68;83.30;99537.29;104911;1289;22663;-78
2022/10/02 01:22:36;;;;;;;8.80;6.00;;;;;;;10.65;83.58;99543.84;104597;1290;24324;-80
2022/10/02 01:25:06;;;;;;;7.00;5.90;;;;;;;10.62;83.64;99544.10;104820;1289;24275;-80
2022/10/02 01:27:35;;;;;;;6.60;5.60;;;;;;;10.64;83.75;99545.80;104748;1289;24267;-81
2022/10/02 01:30:16;;;;;;;6.90;6.20;;;;;;;10.64;83.82;99544.21;104746;1289;25275;-80
2022/10/02 01:32:50;;;;;;;7.90;6.60;;;;;;;10.71;83.89;99547.78;105601;1280;22552;-80
2022/10/02 01:35:20;;;;;;;8.90;6.20;;;;;;;10.74;83.68;99547.70;105724;1274;22745;-78
2022/10/02 01:37:49;;;;;;;7.50;6.10;;;;;;;10.72;83.79;99551.44;106230;1274;22553;-80
2022/10/02 01:40:34;;;;;;;6.90;6.10;;;;;;;10.74;83.85;99551.58;106057;1274;22556;-79
2022/10/02 01:43:08;;;;;;;7.10;6.30;;;;;;;10.69;83.73;99546.74;105928;1275;25368;-80
2022/10/02 01:45:53;;;;;;;10.40;7.10;;;;;;;10.71;83.88;99553.76;106017;1274;25376;-81
2022/10/02 01:48:35;;;;;;;6.80;6.10;;;;;;;10.72;83.90;99554.27;106127;1274;22522;-80
2022/10/02 01:51:08;;;;;;;6.90;6.10;;;;;;;10.74;83.90;99559.85;106158;1274;22692;-78
2022/10/02 01:54:02;;;;;;;6.90;6.10;;;;;;;10.74;83.82;99560.90;105486;1281;25271;-84
2022/10/02 01:56:45;;;;;;;7.20;5.60;;;;;;;10.73;83.59;99561.98;105239;1283;24358;-82
2022/10/02 01:59:48;;;;;;;6.50;5.90;;;;;;;10.68;83.80;99559.82;105648;1279;22869;-81
2022/10/02 02:02:51;;;;;;;6.30;5.70;;;;;;;10.62;83.75;99567.32;105647;1279;22709;-81
2022/10/02 02:05:26;;;;;;;6.60;5.70;;;;;;;10.59;83.93;99570.05;105427;1279;25269;-81
2022/10/02 02:08:00;;;;;;;6.40;5.80;;;;;;;10.59;84.08;99573.02;105780;1279;24317;-81
2022/10/02 02:10:43;;;;;;;6.30;5.50;;;;;;;10.65;84.03;99584.69;105816;1279;24369;-79
2022/10/02 02:13:25;;;;;;;6.60;5.90;;;;;;;10.66;84.04;99589.08;106185;1274;23054;-80
2022/10/02 02:16:23;;;;;;;6.80;6.00;;;;;;;10.66;83.89;99589.78;106175;1273;23170;-77
2022/10/02 02:19:13;;;;;;;6.50;5.80;;;;;;;10.64;84.00;99590.34;106391;1274;22556;-78
2022/10/02 02:21:46;;;;;;;9.70;5.80;;;;;;;10.62;84.13;99588.81;106184;1273;24362;-81
2022/10/02 02:24:21;;;;;;;7.70;6.60;;;;;;;10.67;84.16;99594.16;106147;1273;26574;-80
2022/10/02 02:26:49;;;;;;;7.20;6.20;;;;;;;10.67;84.17;99596.46;106150;1274;25248;-78
2022/10/02 02:29:20;;;;;;;7.60;5.80;;;;;;;10.71;84.14;99593.75;106180;1273;25255;-76
2022/10/02 02:31:54;;;;;;;7.10;6.40;;;;;;;10.72;84.12;99595.81;106141;1273;22553;-81
2022/10/02 02:34:27;;;;;;;6.80;5.60;;;;;;;10.73;83.89;99600.36;106183;1273;23868;-76
2022/10/02 02:36:59;;;;;;;7.70;6.00;;;;;;;10.71;83.98;99599.72;106114;1273;24275;-77
2022/10/02 02:39:54;;;;;;;7.00;6.30;;;;;;;10.71;84.07;99598.13;106164;1271;22694;-81
2022/10/02 02:42:26;;;;;;;7.60;6.80;;;;;;;10.68;84.09;99601.20;105715;1277;25396;-78
2022/10/02 02:45:05;;;;;;;6.30;5.70;;;;;;;10.67;84.12;99601.56;106014;1279;26551;-76
2022/10/02 02:47:50;;;;;;;6.40;5.80;;;;;;;10.69;84.02;99611.74;105791;1279;25380;-78
2022/10/02 02:50:21;;;;;;;6.30;5.60;;;;;;;10.70;84.03;99603.29;105784;1279;24417;-76
2022/10/02 02:52:57;;;;;;;8.30;6.70;;;;;;;10.66;83.85;99608.28;105806;1279;25344;-78
2022/10/02 02:55:32;;;;;;;7.20;6.50;;;;;;;10.63;84.11;99608.86;105720;1279;22798;-79
2022/10/02 02:58:19;;;;;;;8.30;6.50;;;;;;;10.57;84.06;99604.42;105655;1279;23967;-77
2022/10/02 03:00:46;;;;;;;7.90;7.10;;;;;;;10.56;84.39;99605.16;105951;1273;22607;-79
2022/10/02 03:03:13;;;;;;;7.00;6.40;;;;;;;10.60;84.46;99601.53;106151;1271;25382;-76
2022/10/02 03:05:46;;;;;;;7.70;6.90;;;;;;;10.63;84.31;99596.20;106138;1271;22837;-77
2022/10/02 03:08:25;;;;;;;7.60;6.60;;;;;;;10.65;84.50;99598.98;106161;1271;24351;-76
2022/10/02 03:11:26;;;;;;;6.80;6.20;;;;;;;10.67;84.16;99610.55;106160;1271;24281;-77
2022/10/02 03:14:10;;;;;;;7.30;6.60;;;;;;;10.63;84.27;99613.09;106304;1271;24734;-78
2022/10/02 03:16:40;;;;;;;7.50;6.40;;;;;;;10.66;84.24;99614.96;106159;1272;25220;-79
2022/10/02 03:19:37;;;;;;;7.80;7.00;;;;;;;10.69;84.39;99614.90;106300;1271;22692;-82
2022/10/02 03:22:23;;;;;;;7.80;7.00;;;;;;;10.67;84.28;99610.73;106288;1273;25383;-83
2022/10/02 03:25:02;;;;;;;7.30;6.50;;;;;;;10.65;84.46;99614.27;106327;1271;24231;-75
2022/10/02 03:27:38;;;;;;;7.90;7.10;;;;;;;10.64;84.44;99617.29;106152;1271;22687;-76
2022/10/02 03:30:08;;;;;;;7.50;6.80;;;;;;;10.62;84.53;99613.80;106280;1271;25309;-75
2022/10/02 03:32:38;;;;;;;7.40;6.70;;;;;;;10.59;84.51;99610.36;106138;1272;22565;-78
2022/10/02 03:35:11;;;;;;;7.80;6.80;;;;;;;10.62;84.81;99611.54;106388;1272;24153;-77
2022/10/02 03:37:43;;;;;;;7.30;6.20;;;;;;;10.63;84.69;99614.14;106162;1271;25318;-78
2022/10/02 03:40:11;;;;;;;7.40;6.40;;;;;;;10.62;84.63;99616.44;106324;1271;24241;-80
2022/10/02 03:42:39;;;;;;;7.40;6.60;;;;;;;10.63;84.64;99615.74;106293;1271;24200;-76
2022/10/02 03:45:06;;;;;;;7.80;7.10;;;;;;;10.63;84.65;99614.85;106455;1271;23186;-81
2022/10/02 03:47:33;;;;;;;7.50;6.80;;;;;;;10.62;84.66;99616.44;106239;1274;25217;-78
2022/10/02 03:50:00;;;;;;;7.30;6.60;;;;;;;10.61;84.93;99618.06;106275;1271;25258;-80
2022/10/02 03:52:30;;;;;;;7.80;7.00;;;;;;;10.66;84.93;99623.23;106267;1272;22842;-82
2022/10/02 03:55:27;;;;;;;7.80;7.00;;;;;;;10.65;84.94;99622.91;106122;1276;22546;-81
2022/10/02 03:57:55;;;;;;;;;;;;;;;10.65;85.04;99620.45;106126;1277;22551;-82
2022/10/02 04:00:33;;;;;;;7.90;7.20;;;;;;;10.63;85.19;99618.20;105809;1276;22851;-77
2022/10/02 04:03:13;;;;;;;8.10;7.30;;;;;;;10.60;85.03;99615.61;105830;1276;25256;-77
2022/10/02 04:05:56;;;;;;;8.60;7.00;;;;;;;10.61;85.12;99625.98;105759;1276;24223;-79
2022/10/02 04:08:39;;;;;;;6.60;6.00;;;;;;;10.58;85.11;99618.11;105776;1278;24081;-78
2022/10/02 04:11:23;;;;;;;7.50;6.90;;;;;;;10.62;85.33;99626.30;105866;1277;22532;-80
2022/10/02 04:14:05;;;;;;;8.50;7.70;;;;;;;10.59;85.37;99625.33;106111;1271;24742;-81
2022/10/02 04:16:40;;;;;;;7.40;6.70;;;;;;;10.59;85.53;99624.44;106230;1274;22556;-80
2022/10/02 04:19:36;;;;;;;7.00;6.40;;;;;;;10.59;85.52;99631.66;106381;1271;25364;-83
2022/10/02 04:22:29;;;;;;;7.10;6.40;;;;;;;10.61;85.58;99630.20;106378;1269;22723;-78
2022/10/02 04:25:09;;;;;;;8.70;7.80;;;;;;;10.64;85.61;99636.30;106362;1271;25261;-78
2022/10/02 04:27:49;;;;;;;8.30;7.50;;;;;;;10.63;85.56;99635.09;106139;1272;22528;-79
2022/10/02 04:30:19;;;;;;;7.60;6.90;;;;;;;10.60;85.71;99635.69;106380;1272;25525;-82
2022/10/02 04:32:46;;;;;;;7.00;6.40;;;;;;;10.62;85.88;99640.05;106457;1272;23948;-79
2022/10/02 04:35:15;;;;;;;7.60;6.90;;;;;;;10.61;85.95;99635.31;106232;1274;22574;-80
2022/10/02 04:37:50;;;;;;;7.90;7.20;;;;;;;10.61;85.90;99640.94;105743;1281;22578;-78
2022/10/02 04:40:39;;;;;;;7.50;6.90;;;;;;;10.60;86.05;99641.50;105934;1282;25356;-77
2022/10/02 04:43:14;;;;;;;8.30;7.50;;;;;;;10.61;86.23;99640.41;106197;1281;24377;-77
2022/10/02 04:46:14;;;;;;;8.90;7.60;;;;;;;10.63;86.13;99642.50;105323;1287;22592;-79
2022/10/02 04:49:04;;;;;;;7.10;6.40;;;;;;;10.63;86.29;99645.13;105441;1287;24405;-79
2022/10/02 04:51:42;;;;;;;7.80;7.10;;;;;;;10.65;86.30;99642.09;104699;1287;22777;-77
2022/10/02 04:54:56;;;;;;;9.50;8.70;;;;;;;10.70;86.48;99642.70;105332;1284;22631;-85
2022/10/02 04:58:10;;;;;;;7.70;6.90;;;;;;;10.68;86.43;99646.27;105962;1279;22491;-81
2022/10/02 05:01:09;;;;;;;8.50;7.70;;;;;;;10.65;86.33;99649.14;106104;1279;24237;-79
2022/10/02 05:03:45;;;;;;;7.40;6.80;;;;;;;10.66;86.54;99653.89;105421;1279;22881;-78
2022/10/02 05:06:46;;;;;;;7.60;6.70;;;;;;;10.69;86.45;99658.59;105994;1276;25533;-75
2022/10/02 05:09:36;;;;;;;8.20;7.50;;;;;;;10.70;86.53;99662.43;106168;1276;23766;-77
2022/10/02 05:12:12;;;;;;;8.30;7.10;;;;;;;10.70;86.58;99661.04;106097;1276;25784;-78
2022/10/02 05:15:23;;;;;;;7.40;6.60;;;;;;;10.69;86.61;99662.29;106001;1276;24403;-77
2022/10/02 05:17:53;;;;;;;7.10;6.50;;;;;;;10.67;86.84;99665.84;106008;1276;22530;-79
2022/10/02 05:20:44;;;;;;;6.60;6.00;;;;;;;10.69;86.86;99669.16;106117;1276;22605;-81
2022/10/02 05:23:22;;;;;;;6.50;5.90;;;;;;;10.69;86.73;99673.70;106313;1271;25374;-83
2022/10/02 05:26:07;;;;;;;6.40;5.80;;;;;;;10.72;86.75;99673.48;105830;1276;22534;-81
2022/10/02 05:29:16;;;;;;;5.90;5.40;;;;;;;10.76;86.80;99671.64;105855;1276;25382;-79
2022/10/02 05:31:55;;;;;;;6.60;5.90;;;;;;;10.79;86.67;99673.34;105761;1276;22662;-82
2022/10/02 05:34:44;;;;;;;7.40;6.60;;;;;;;10.82;86.73;99678.37;105384;1282;24372;-82
2022/10/02 05:37:29;;;;;;;6.00;5.40;;;;;;;10.86;86.55;99678.80;105367;1282;22565;-79
2022/10/02 05:40:22;;;;;;;5.90;5.40;;;;;;;10.85;86.37;99678.30;105315;1282;22560;-81
2022/10/02 05:42:54;;;;;;;5.00;4.60;;;;;;;10.87;86.54;99682.13;105330;1281;22541;-78
2022/10/02 05:45:39;;;;;;;5.70;5.20;;;;;;;10.89;86.52;99680.16;105802;1279;22557;-78
2022/10/02 05:48:22;;;;;;;5.80;5.40;;;;;;;10.88;86.60;99684.77;106156;1277;22638;-87
2022/10/02 05:50:55;;;;;;;6.10;5.50;;;;;;;10.88;86.61;99687.58;106564;1277;22741;-78
2022/10/02 05:53:35;;;;;;;5.40;4.90;;;;;;;10.89;86.57;99688.79;106084;1271;22613;-82
2022/10/02 05:56:15;;;;;;;5.60;5.20;;;;;;;10.91;86.63;99693.67;106317;1271;24026;-77
2022/10/02 05:59:08;;;;;;;5.50;5.00;;;;;;;10.92;86.55;99692.80;106216;1271;22691;-83
2022/10/02 06:01:41;;;;;;;6.10;5.60;;;;;;;10.92;86.72;99693.67;106283;1271;22524;-81
2022/10/02 06:04:25;;;;;;;4.90;4.50;;;;;;;10.95;86.89;99695.35;106457;1271;22831;-82
2022/10/02 06:07:00;;;;;;;4.90;4.30;;;;;;;10.96;86.83;99696.56;106349;1271;22530;-79
2022/10/02 06:09:49;;;;;;;4.70;4.30;;;;;;;10.94;86.77;99698.05;106405;1271;24406;-79
2022/10/02 06:12:38;;;;;;;5.00;4.20;;;;;;;10.96;86.99;99701.14;106705;1271;22588;-80
2022/10/02 06:15:18;;;;;;;4.50;4.10;;;;;;;11.00;86.98;99700.70;107440;1271;22543;-76
2022/10/02 06:17:51;;;;;;;4.50;4.00;;;;;;;11.08;86.94;99705.11;106733;1271;22557;-72
2022/10/02 06:20:27;;;;;;;5.30;4.60;;;;;;;11.16;86.87;99703.53;106329;1271;22607;-75
2022/10/02 06:23:10;;;;;;;5.70;5.00;;;;;;;11.19;86.60;99707.18;106115;1271;21819;-78
2022/10/02 06:25:40;;;;;;;5.20;4.70;;;;;;;11.17;86.58;99703.67;106067;1274;22620;-78
2022/10/02 06:28:26;;;;;;;5.10;4.60;;;;;;;11.23;86.62;99707.60;106266;1271;22767;-78
2022/10/02 06:31:00;;;;;;;;;;;;;;;11.29;86.52;99705.54;106299;1274;22541;-77
2022/10/02 06:33:32;;;;;;;5.10;4.70;;;;;;;11.34;86.48;99711.05;106464;1271;22695;-79
2022/10/02 06:36:21;;;;;;;4.90;4.50;;;;;;;11.37;86.13;99713.10;106238;1271;22737;-79
2022/10/02 06:39:16;;;;;;;4.60;4.20;;;;;;;11.39;85.82;99712.53;106209;1270;22629;-79
2022/10/02 06:41:49;;;;;;;6.60;4.70;;;;;;;11.36;85.79;99717.54;106403;1271;22687;-79
2022/10/02 06:44:35;;;;;;;5.50;4.70;;;;;;;11.35;85.91;99716.33;107107;1271;22534;-79
2022/10/02 06:47:01;;;;;;;4.60;4.20;;;;;;;11.36;85.79;99717.70;106461;1271;22696;-83
2022/10/02 06:50:18;;;;;;;4.40;4.00;;;;;;;11.41;85.95;99716.55;106278;1271;24778;-78
2022/10/02 06:52:55;;;;;;;4.30;3.90;;;;;;;11.43;85.89;99715.61;106770;1271;22544;-80
2022/10/02 06:55:35;;;;;;;3.60;3.30;;;;;;;11.41;85.82;99730.98;106468;1271;23012;-83
2022/10/02 06:58:30;;;;;;;3.50;3.20;;;;;;;11.37;85.87;99726.67;106316;1271;22763;-75
2022/10/02 07:01:00;;;;;;;4.20;3.80;;;;;;;11.41;86.17;99722.89;106224;1270;24380;-77
2022/10/02 07:04:03;;;;;;;3.70;3.00;;;;;;;11.41;86.15;99723.05;106325;1271;22562;-78
2022/10/02 07:07:02;;;;;;;3.80;3.50;;;;;;;11.45;86.20;99732.66;106196;1271;25321;-76
2022/10/02 07:09:44;;;;;;;4.60;3.70;;;;;;;11.42;85.91;99739.08;106281;1271;22861;-77
2022/10/02 07:12:38;;;;;;;8.20;3.60;;;;;;;11.40;85.96;99742.13;106145;1271;22538;-79
2022/10/02 07:15:17;;;;;;;3.70;3.50;;;;;;;11.41;86.00;99744.95;106174;1271;22765;-83
2022/10/02 07:18:01;;;;;;;3.80;3.20;;;;;;;11.38;85.97;99747.64;106624;1271;25266;-79
2022/10/02 07:20:59;;;;;;;4.60;3.70;;;;;;;11.39;85.97;99754.66;106731;1271;22707;-77
2022/10/02 07:23:46;;;;;;;5.90;4.40;;;;;;;11.42;85.91;99750.57;106306;1277;22645;-76
2022/10/02 07:26:13;;;;;;;;;;;;;;;11.40;85.93;99761.35;106178;1275;24065;-75
2022/10/02 07:28:56;;;;;;;5.80;4.40;;;;;;;11.41;86.01;99763.96;106056;1274;25261;-78
2022/10/02 07:31:32;;;;;;;5.60;4.70;;;;;;;11.43;85.82;99762.52;105907;1277;22534;-76
2022/10/02 07:34:16;;;;;;;;;;;;;;;11.45;85.81;99765.11;106048;1274;22531;-80
2022/10/02 07:37:01;;;;;;;4.70;4.10;;;;;;;11.48;85.66;99768.22;105982;1277;22547;-76
2022/10/02 07:40:16;;;;;;;5.20;4.70;;;;;;;11.52;85.66;99767.93;106032;1274;22612;-80
2022/10/02 07:42:57;;;;;;;5.70;4.10;;;;;;;11.57;85.45;99763.42;105986;1271;22537;-80
2022/10/02 07:45:41;;;;;;;5.50;4.80;;;;;;;11.62;85.26;99764.02;106208;1271;22549;-77
2022/10/02 07:48:07;;;;;;;5.90;4.30;;;;;;;11.71;85.28;99769.80;106205;1271;24215;-83
2022/10/02 07:50:48;;;;;;;5.80;3.80;;;;;;;11.77;84.77;99770.73;106389;1271;23962;-75
2022/10/02 07:53:29;;;;;;;4.80;3.90;;;;;;;11.80;84.54;99770.98;106731;1270;24268;-78
2022/10/02 07:55:58;;;;;;;7.10;3.80;;;;;;;11.80;84.31;99774.52;106245;1271;25364;-78
2022/10/02 07:58:35;;;;;;;7.00;3.90;;;;;;;11.79;84.10;99775.09;106289;1271;26019;-78
2022/10/02 08:01:15;;;;;;;3.80;3.30;;;;;;;11.78;84.04;99772.30;106228;1271;22758;-79
2022/10/02 08:03:55;;;;;;;3.70;3.40;;;;;;;11.78;83.96;99774.73;106207;1271;26500;-74
2022/10/02 08:06:22;;;;;;;4.90;3.30;;;;;;;11.78;83.86;99773.17;106284;1271;22544;-80
2022/10/02 08:08:59;;;;;;;6.90;3.50;;;;;;;11.77;83.86;99774.08;106137;1271;22760;-78
2022/10/02 08:11:43;;;;;;;4.00;3.60;;;;;;;11.79;83.82;99778.27;106330;1271;25411;-79
2022/10/02 08:14:33;;;;;;;5.70;3.10;;;;;;;11.81;83.74;99776.98;106304;1271;25251;-79
2022/10/02 08:17:14;;;;;;;3.40;2.80;;;;;;;11.80;83.55;99781.06;106206;1271;25335;-79
2022/10/02 08:19:51;;;;;;;5.10;2.60;;;;;;;11.78;83.25;99784.63;106220;1271;22678;-80
2022/10/02 08:22:29;;;;;;;7.30;2.60;;;;;;;11.78;83.26;99783.21;106265;1271;25264;-80
2022/10/02 08:25:04;;;;;;;5.30;3.00;;;;;;;11.81;83.21;99784.58;106215;1271;23662;-80
2022/10/02 08:27:40;;;;;;;4.20;2.30;;;;;;;11.82;83.20;99783.48;106421;1271;24701;-79
2022/10/02 08:30:11;;;;;;;6.00;2.50;;;;;;;11.84;83.19;99788.00;105905;1277;25373;-81
2022/10/02 08:32:38;;;;;;;2.90;2.00;;;;;;;11.88;83.21;99789.33;105845;1277;22726;-79
2022/10/02 08:35:11;;;;;;;4.50;2.20;;;;;;;11.91;82.85;99788.38;105673;1277;22649;-80
2022/10/02 08:37:45;;;;;;;5.30;2.50;;;;;;;11.94;82.62;99789.55;105142;1285;22550;-78
2022/10/02 08:40:49;;;;;;;4.40;2.20;;;;;;;11.95;82.62;99787.94;105213;1285;22563;-81
2022/10/02 08:43:49;;;;;;;6.80;2.00;;;;;;;11.98;82.25;99789.80;105095;1284;22729;-80
2022/10/02 08:46:28;;;;;;;5.00;2.50;;;;;;;12.03;81.86;99791.80;105229;1284;23886;-76
2022/10/02 08:49:12;;;;;;;6.30;1.90;;;;;;;12.09;81.56;99791.34;105542;1277;22549;-75
2022/10/02 08:52:20;;;;;;;5.10;2.30;;;;;;;12.14;81.06;99794.20;105771;1279;23916;-77
2022/10/02 08:55:18;;;;;;;5.10;2.20;;;;;;;12.19;80.84;99794.45;106365;1277;25633;-76
2022/10/02 08:58:19;;;;;;;7.20;2.20;;;;;;;12.27;80.51;99788.21;106136;1271;22615;-76
2022/10/02 09:01:05;;;;;;;4.30;1.90;;;;;;;12.36;80.16;99788.00;106073;1274;25359;-76
2022/10/02 09:03:44;;;;;;;5.10;2.30;;;;;;;12.46;79.89;99788.45;106373;1271;22700;-75
2022/10/02 09:06:43;;;;;;;4.30;2.40;;;;;;;12.54;79.65;99788.42;106406;1271;23225;-75
2022/10/02 09:09:23;;;;;;;7.10;2.60;;;;;;;12.65;79.02;99784.41;106274;1271;22550;-81
2022/10/02 09:12:37;;;;;;;9.20;2.80;;;;;;;12.70;78.31;99779.16;106334;1271;22710;-83
2022/10/02 09:15:14;;;;;;;4.90;2.70;;;;;;;12.84;78.81;99779.45;106461;1271;26516;-82
2022/10/02 09:17:41;;;;;;;3.50;2.20;;;;;;;12.98;78.38;99779.60;107959;1271;24220;-82
2022/10/02 09:20:39;;;;;;;4.60;2.30;;;;;;;13.05;77.78;99776.77;106419;1271;25356;-83
2022/10/02 09:23:34;;;;;;;2.70;1.70;;;;;;;13.01;76.79;99776.53;106331;1271;22535;-82
2022/10/02 09:26:13;;;;;;;7.10;2.80;;;;;;;12.91;76.64;99778.40;106441;1271;22537;-82
2022/10/02 09:29:06;;;;;;;6.90;2.00;;;;;;;12.88;76.59;99783.42;106685;1271;22534;-81
2022/10/02 09:31:52;;;;;;;5.70;2.10;;;;;;;12.89;76.22;99786.40;106347;1271;23916;-77
2022/10/02 09:34:57;;;;;;;5.70;2.40;;;;;;;12.88;76.10;99777.95;106323;1271;22576;-81
2022/10/02 09:37:37;;;;;;;5.40;2.40;;;;;;;12.95;75.97;99784.81;106402;1271;22758;-84
2022/10/02 09:40:19;;;;;;;6.90;2.40;;;;;;;13.04;75.25;99789.33;106278;1271;22552;-81
2022/10/02 09:43:17;;;;;;;5.30;2.20;;;;;;;13.16;75.30;99789.52;106327;1271;25369;-81
2022/10/02 09:46:03;;;;;;;5.60;2.10;;;;;;;13.35;75.23;99782.76;106334;1274;22728;-79
2022/10/02 09:49:07;;;;;;;3.70;2.20;;;;;;;13.60;74.10;99787.86;106345;1271;25688;-81
2022/10/02 09:51:44;;;;;;;6.00;2.70;;;;;;;13.90;73.45;99777.38;106528;1271;25372;-80
2022/10/02 09:54:41;;;;;;;5.40;1.80;;;;;;;14.20;73.04;99774.23;106295;1271;22541;-84
2022/10/02 09:57:30;;;;;;;4.20;2.40;;;;;;;14.46;72.40;99761.15;106181;1271;22629;-82
2022/10/02 10:00:19;;;;;;;8.10;2.20;;;;;;;14.76;70.71;99756.55;106322;1271;25871;-80
2022/10/02 10:03:24;;;;;;;4.40;1.60;;;;;;;14.87;69.54;99755.46;106543;1271;22788;-78
2022/10/02 10:06:13;;;;;;;7.80;2.40;;;;;;;14.83;68.75;99759.15;106946;1271;22681;-76
2022/10/02 10:08:58;;;;;;;6.50;1.70;;;;;;;14.86;67.91;99749.29;106494;1271;22550;-80
2022/10/02 10:11:29;;;;;;;7.00;2.00;;;;;;;15.04;67.86;99748.80;107241;1273;22512;-81
2022/10/02 10:14:15;;;;;;;4.70;1.60;;;;;;;15.22;67.65;99746.35;107685;1271;25244;-80
2022/10/02 10:17:07;;;;;;;4.50;1.70;;;;;;;15.45;66.91;99742.98;107683;1271;23941;-81
2022/10/02 10:20:07;;;;;;;5.30;2.30;;;;;;;15.62;65.89;99740.20;107373;1271;25518;-80
2022/10/02 10:23:07;;;;;;;5.80;1.90;;;;;;;15.85;65.19;99744.58;107420;1271;22865;-79
2022/10/02 10:26:01;;;;;;;5.90;2.40;;;;;;;15.67;63.18;99741.25;106486;1277;24299;-85
2022/10/02 10:28:32;;;;;;;4.70;1.60;;;;;;;15.35;62.82;99736.48;106119;1277;25387;-82
2022/10/02 10:31:15;;;;;;;7.00;2.00;;;;;;;15.19;63.13;99734.60;105950;1276;25451;-81
2022/10/02 10:33:56;;;;;;;6.10;2.10;;;;;;;15.22;62.43;99733.05;105923;1276;25363;-81
2022/10/02 10:40:24;;;;;;;7.90;1.70;;;;;;;15.87;60.85;99736.34;105916;1276;24185;-80
2022/10/02 10:42:57;;;;;;;3.70;1.70;;;;;;;15.74;60.73;99733.45;105885;1274;25269;-80
2022/10/02 10:46:20;;;;;;;6.90;2.40;;;;;;;15.67;59.63;99733.42;106812;1271;25383;-78
2022/10/02 10:49:24;;;;;;;4.10;1.60;;;;;;;15.55;60.19;99727.34;107008;1271;22758;-79
2022/10/02 10:51:58;;;;;;;4.80;1.50;;;;;;;15.55;60.86;99727.34;106956;1271;24306;-80
2022/10/02 10:54:24;;;;;;;2.70;1.40;;;;;;;15.43;60.55;99736.30;106545;1271;22612;-81
2022/10/02 10:57:17;;;;;;;4.70;1.80;;;;;;;15.22;61.12;99733.59;106675;1271;25436;-82
2022/10/02 11:00:11;;;;;;;4.10;1.40;;;;;;;14.97;62.05;99754.92;106641;1270;24309;-81
2022/10/02 11:02:53;;;;;;;3.80;1.50;;;;;;;14.46;64.32;99757.07;106660;1271;22541;-85
2022/10/02 11:05:41;;;;;;;3.90;1.40;;;;;;;14.08;66.37;99764.94;106916;1271;25222;-80
2022/10/02 11:08:33;;;;;;;4.50;1.80;;;;;;;13.70;67.61;99756.80;106213;1274;22700;-81
2022/10/02 11:11:28;;;;;;;3.20;1.60;;;;;;;13.48;69.37;99762.75;106324;1271;23893;-78
2022/10/02 11:14:02;;;;;;;4.50;1.70;;;;;;;13.55;70.01;99762.20;106406;1271;25370;-78
2022/10/02 11:16:37;;;;;;;5.80;2.10;;;;;;;13.91;70.44;99755.39;106791;1271;24290;-81
2022/10/02 11:19:10;;;;;;;3.20;1.90;;;;;;;14.39;70.21;99755.90;106662;1271;22612;-78
2022/10/02 11:22:08;;;;;;;3.50;1.60;;;;;;;14.54;69.29;99746.52;107003;1271;24234;-79
2022/10/02 11:25:07;;;;;;;5.60;2.10;;;;;;;14.45;69.25;99746.12;106581;1277;23052;-78
2022/10/02 11:28:01;;;;;;;3.40;2.00;;;;;;;14.35;69.75;99748.23;106179;1277;25219;-82
2022/10/02 11:30:37;;;;;;;7.10;2.20;;;;;;;14.25;69.98;99749.81;106344;1277;22539;-81
2022/10/02 11:33:27;;;;;;;4.70;1.90;;;;;;;14.08;70.16;99751.30;106099;1277;24265;-78
2022/10/02 11:36:05;;;;;;;7.30;2.30;;;;;;;13.94;70.78;99752.28;105933;1276;25258;-79
2022/10/02 11:38:54;;;;;;;10.60;2.90;;;;;;;13.88;70.97;99753.73;106082;1277;23317;-80
2022/10/02 11:41:29;;;;;;;6.10;2.60;;;;;;;13.82;71.26;99747.73;105933;1276;24216;-78
2022/10/02 11:44:04;;;;;;;4.30;1.90;;;;;;;13.77;71.36;99746.45;106423;1271;24806;-79
2022/10/02 11:46:47;;;;;;;3.50;1.80;;;;;;;13.82;71.71;99742.21;106293;1271;22539;-80
2022/10/02 11:49:35;;;;;;;3.70;1.90;;;;;;;13.92;71.48;99743.88;106322;1271;22785;-79
2022/10/02 11:52:15;;;;;;;5.10;1.80;;;;;;;13.94;71.47;99747.86;106317;1271;25261;-80
2022/10/02 11:55:06;;;;;;;6.80;1.90;;;;;;;13.93;71.33;99745.08;106972;1271;25379;-77
2022/10/02 11:58:03;;;;;;;4.10;1.70;;;;;;;13.92;71.14;99736.77;106420;1271;22960;-81
2022/10/02 12:00:50;;;;;;;;;;;;;;;13.91;70.97;99734.70;106431;1271;22555;-82
2022/10/02 12:03:45;;;;;;;7.10;2.50;;;;;;;13.92;70.60;99738.02;106209;1271;24383;-82
2022/10/02 12:06:24;;;;;;;7.50;2.10;;;;;;;14.03;70.18;99743.67;106454;1271;24308;-77
2022/10/02 12:09:17;;;;;;;3.30;1.70;;;;;;;13.98;68.96;99737.26;106273;1271;25253;-81
2022/10/02 12:11:54;;;;;;;3.20;1.90;;;;;;;13.84;68.75;99739.70;106306;1271;22726;-80
2022/10/02 12:14:41;;;;;;;3.60;2.10;;;;;;;13.80;69.01;99743.53;106325;1271;22850;-79
2022/10/02 12:17:39;;;;;;;6.60;2.10;;;;;;;13.73;68.53;99746.42;106294;1271;22710;-80
2022/10/02 12:27:01;;;;;;;6.90;1.90;;;;;;;13.44;68.65;99746.42;106196;1271;25834;-83
2022/10/02 12:29:54;;;;;;;4.90;1.80;;;;;;;13.42;69.17;99742.06;106573;1271;25516;-80
2022/10/02 12:32:49;;;;;;;4.50;1.60;;;;;;;13.40;69.12;99737.88;106515;1274;25398;-80
2022/10/02 12:35:26;;;;;;;3.80;2.00;;;;;;;13.41;69.38;99737.13;106445;1274;22569;-80
2022/10/02 12:38:05;;;;;;;3.90;2.00;;;;;;;13.56;69.45;99730.69;106352;1271;22583;-80
2022/10/02 12:41:06;;;;;;;4.90;2.30;;;;;;;13.79;68.82;99730.99;106328;1271;22550;-79
2022/10/02 12:43:39;;;;;;;3.70;2.00;;;;;;;13.91;67.37;99723.35;108785;1271;22561;-82
2022/10/02 12:46:14;;;;;;;5.50;1.80;;;;;;;13.83;67.16;99724.33;108659;1271;22470;-77
2022/10/02 12:48:58;;;;;;;4.50;2.00;;;;;;;13.79;67.66;99723.94;106942;1271;22904;-76
2022/10/02 12:51:52;;;;;;;4.50;2.00;;;;;;;13.76;67.57;99724.20;106848;1271;24268;-80